Time;durP1;ratioP1;P1;durP2;ratioP2;P2;SDS_P1;SDS_P2;PMS_P1;PMS_P2;Temp;Humidity;BMP_temperature;BMP_pressure;BME280_temperature;BME280_humidity;BME280_pressure;Samples;Min_cycle;Max_cycle;Signal;HPM_P1;HPM_P2
2022/10/06 00:01:07;;;;;;;8.05;3.33;;;;;;;11.56;72.10;100133.56;1731952;82;21084;-44
2022/10/06 00:03:34;;;;;;;6.83;3.17;;;;;;;11.55;72.17;100137.97;1732037;82;21546;-44
2022/10/06 00:06:01;;;;;;;6.78;3.30;;;;;;;11.52;72.16;100131.88;1732184;82;21021;-44
2022/10/06 00:08:34;;;;;;;9.55;3.00;;;;;;;11.47;72.18;100130.21;1732201;82;21072;-44
2022/10/06 00:11:00;;;;;;;9.08;3.08;;;;;;;11.48;72.18;100134.48;1732343;82;21799;-44
2022/10/06 00:13:28;;;;;;;6.12;3.15;;;;;;;11.51;72.19;100126.23;1731983;82;21501;-44
2022/10/06 00:15:56;;;;;;;7.22;3.45;;;;;;;11.51;72.14;100133.02;1732665;82;21001;-44
2022/10/06 00:18:24;;;;;;;7.22;3.10;;;;;;;11.48;72.17;100138.55;1732345;82;21219;-44
2022/10/06 00:20:59;;;;;;;7.90;2.87;;;;;;;11.46;72.17;100133.27;1732433;82;21033;-44
2022/10/06 00:23:27;;;;;;;10.38;3.42;;;;;;;11.46;72.20;100128.63;1732295;82;23183;-44
2022/10/06 00:25:57;;;;;;;8.15;3.00;;;;;;;11.50;72.12;100126.80;1732377;82;20989;-44
2022/10/06 00:28:24;;;;;;;4.10;2.80;;;;;;;11.52;71.93;100124.50;1732338;82;21784;-44
2022/10/06 00:30:52;;;;;;;5.33;3.00;;;;;;;11.47;72.01;100122.63;1732358;82;21024;-44
2022/10/06 00:33:19;;;;;;;7.05;3.35;;;;;;;11.44;72.00;100117.30;1732232;81;21079;-45
2022/10/06 00:35:46;;;;;;;6.42;3.00;;;;;;;11.41;71.97;100120.72;1732150;82;21200;-44
2022/10/06 00:38:15;;;;;;;12.58;2.90;;;;;;;11.39;71.99;100125.70;1732036;82;21000;-44
2022/10/06 00:40:45;;;;;;;8.77;3.40;;;;;;;11.43;71.84;100115.72;1732371;82;21567;-44
2022/10/06 00:43:50;;;;;;;6.45;2.90;;;;;;;11.43;71.76;100121.16;1731902;82;21080;-44
2022/10/06 00:46:45;;;;;;;7.40;3.08;;;;;;;11.37;71.79;100114.41;1732145;82;21542;-44
2022/10/06 00:49:20;;;;;;;8.65;3.50;;;;;;;11.28;71.92;100108.31;1731887;82;21244;-44
2022/10/06 00:51:53;;;;;;;8.05;2.95;;;;;;;11.20;72.13;100110.63;1731977;82;21455;-44
2022/10/06 00:54:21;;;;;;;7.75;3.10;;;;;;;11.19;72.15;100109.03;1732174;82;20929;-44
2022/10/06 00:56:48;;;;;;;8.80;2.95;;;;;;;11.22;72.11;100109.16;1732234;82;20965;-44
2022/10/06 00:59:17;;;;;;;8.18;3.05;;;;;;;11.24;72.03;100102.00;1731888;82;21095;-44
2022/10/06 01:02:10;;;;;;;5.83;2.87;;;;;;;11.24;72.09;100105.52;1732292;82;21256;-44
2022/10/06 01:04:40;;;;;;;8.95;3.50;;;;;;;11.23;71.98;100102.57;1732061;82;21555;-44
2022/10/06 01:07:07;;;;;;;5.58;2.60;;;;;;;11.15;72.12;100105.44;1732398;82;21008;-44
2022/10/06 01:09:34;;;;;;;7.58;3.25;;;;;;;11.13;72.21;100109.08;1735933;82;21810;-43
2022/10/06 01:12:04;;;;;;;10.05;3.08;;;;;;;11.14;72.22;100094.34;1742339;80;21009;-44
2022/10/06 01:14:30;;;;;;;5.92;3.27;;;;;;;11.18;72.13;100092.55;1773443;80;21248;-44
2022/10/06 01:17:12;;;;;;;8.08;3.65;;;;;;;11.16;72.18;100097.52;1751516;80;20890;-44
2022/10/06 01:19:51;;;;;;;8.75;3.75;;;;;;;11.11;72.19;100099.91;1773589;80;21004;-44
2022/10/06 01:22:38;;;;;;;8.03;3.05;;;;;;;11.06;72.33;100100.72;1773583;80;21037;-44
2022/10/06 01:25:07;;;;;;;5.53;3.00;;;;;;;11.05;72.41;100100.48;1772876;80;21934;-44
2022/10/06 01:27:36;;;;;;;;;;;;;;;11.09;72.35;100093.23;1776721;80;21117;-44
2022/10/06 01:30:05;;;;;;;7.05;3.00;;;;;;;11.10;72.34;100090.75;1774123;80;20132;-44
2022/10/06 01:32:35;;;;;;;12.00;3.60;;;;;;;11.02;72.61;100094.41;1774094;80;20886;-44
2022/10/06 01:35:02;;;;;;;9.05;2.90;;;;;;;11.04;72.51;100098.91;1773998;80;21006;-44
2022/10/06 01:37:29;;;;;;;6.60;2.80;;;;;;;11.03;72.49;100093.28;1774061;80;21041;-43
2022/10/06 01:39:56;;;;;;;6.10;2.95;;;;;;;11.02;72.49;100090.34;1773887;80;21318;-43
2022/10/06 01:42:24;;;;;;;7.67;2.80;;;;;;;11.09;72.42;100093.23;1751556;80;20969;-44
2022/10/06 01:44:51;;;;;;;4.80;2.87;;;;;;;11.12;72.31;100094.72;1773921;80;20957;-44
2022/10/06 01:47:17;;;;;;;6.75;3.00;;;;;;;11.11;72.34;100095.84;1773568;80;21020;-44
2022/10/06 01:49:47;;;;;;;8.43;3.75;;;;;;;11.09;72.42;100086.45;1773720;80;21045;-44
2022/10/06 01:52:15;;;;;;;6.80;2.85;;;;;;;11.06;72.45;100083.08;1773510;80;23117;-44
2022/10/06 01:54:41;;;;;;;9.25;3.05;;;;;;;11.05;72.52;100091.00;1773498;80;20980;-44
2022/10/06 01:57:08;;;;;;;3.72;2.70;;;;;;;11.07;72.60;100086.02;1773564;80;21024;-44
2022/10/06 01:59:35;;;;;;;9.90;3.17;;;;;;;11.12;72.49;100087.14;1773624;80;21033;-44
2022/10/06 02:02:03;;;;;;;5.60;3.10;;;;;;;11.12;72.49;100087.14;1773690;80;21490;-44
2022/10/06 02:04:31;;;;;;;6.35;3.15;;;;;;;11.11;72.51;100093.13;1773759;80;21329;-44
2022/10/06 02:06:58;;;;;;;8.18;3.00;;;;;;;11.11;72.43;100090.98;1773471;80;21050;-44
2022/10/06 02:09:27;;;;;;;7.70;2.53;;;;;;;11.10;72.45;100086.68;1773851;80;21012;-44
2022/10/06 02:11:54;;;;;;;6.08;2.90;;;;;;;11.17;72.34;100088.25;1751751;80;20949;-44
2022/10/06 02:14:21;;;;;;;4.25;2.95;;;;;;;11.21;72.19;100080.99;1773732;80;21041;-44
2022/10/06 02:16:49;;;;;;;5.90;3.37;;;;;;;11.21;72.16;100084.50;1773446;80;21004;-44
2022/10/06 02:19:17;;;;;;;5.40;3.15;;;;;;;11.20;72.13;100079.41;1773484;80;21020;-44
2022/10/06 02:21:44;;;;;;;7.28;2.72;;;;;;;11.13;72.05;100075.95;1773707;80;20914;-44
2022/10/06 02:24:10;;;;;;;8.70;2.65;;;;;;;11.22;71.95;100081.22;1773817;80;21694;-44
2022/10/06 02:26:38;;;;;;;6.90;3.20;;;;;;;11.23;71.82;100084.16;1773613;80;21013;-44
2022/10/06 02:29:05;;;;;;;5.03;2.72;;;;;;;11.27;71.77;100087.77;1773591;80;21205;-44
2022/10/06 02:31:32;;;;;;;9.58;2.90;;;;;;;11.26;71.70;100081.54;1773679;80;21565;-44
2022/10/06 02:33:59;;;;;;;7.95;3.42;;;;;;;11.25;71.57;100085.38;1773434;80;21072;-44
2022/10/06 02:36:26;;;;;;;6.87;2.70;;;;;;;11.21;71.50;100087.78;1779347;80;21032;-44
2022/10/06 02:38:53;;;;;;;8.53;2.80;;;;;;;11.18;71.50;100092.55;1779354;80;21073;-44
2022/10/06 02:41:21;;;;;;;7.67;2.80;;;;;;;11.19;71.48;100092.19;1779420;80;21148;-44
2022/10/06 02:43:48;;;;;;;5.35;2.67;;;;;;;11.21;71.42;100087.78;1779382;80;20902;-44
2022/10/06 02:46:15;;;;;;;10.75;3.10;;;;;;;11.16;71.48;100094.81;1779196;80;21044;-43
2022/10/06 02:48:47;;;;;;;7.83;3.22;;;;;;;11.13;71.61;100102.30;1779359;80;21001;-44
2022/10/06 02:51:17;;;;;;;4.30;2.37;;;;;;;11.10;71.64;100111.11;1779310;80;21010;-44
2022/10/06 02:53:45;;;;;;;7.55;2.50;;;;;;;11.10;71.67;100107.03;1779703;80;21774;-44
2022/10/06 02:56:15;;;;;;;5.35;2.72;;;;;;;11.13;71.61;100099.58;1779222;80;21017;-44
2022/10/06 02:58:43;;;;;;;5.22;3.12;;;;;;;11.14;71.55;100094.34;1779157;80;21004;-44
2022/10/06 03:01:18;;;;;;;11.28;4.25;;;;;;;11.07;71.67;100086.02;1779328;80;21460;-44
2022/10/06 03:03:48;;;;;;;8.53;3.30;;;;;;;11.03;71.81;100096.00;1779308;80;20965;-44
2022/10/06 03:06:22;;;;;;;;;;;;;;;10.98;71.95;100094.87;1781769;80;21246;-44
2022/10/06 03:08:59;;;;;;;7.08;3.20;;;;;;;10.95;72.07;100088.20;1778972;80;20155;-44
2022/10/06 03:11:34;;;;;;;6.25;2.60;;;;;;;10.90;72.21;100093.30;1779035;80;20985;-44
2022/10/06 03:14:01;;;;;;;11.40;3.62;;;;;;;10.95;72.18;100092.27;1779192;80;21539;-44
2022/10/06 03:16:36;;;;;;;8.40;3.05;;;;;;;10.94;72.14;100096.70;1779041;80;21091;-44
2022/10/06 03:19:04;;;;;;;6.70;3.37;;;;;;;10.90;72.09;100097.38;1779372;80;21894;-44
2022/10/06 03:21:34;;;;;;;7.67;3.10;;;;;;;10.88;72.16;100101.58;1773344;80;20921;-44
2022/10/06 03:24:02;;;;;;;6.70;3.00;;;;;;;10.86;72.07;100099.75;1779337;80;21004;-44
2022/10/06 03:26:33;;;;;;;10.85;3.10;;;;;;;10.89;72.00;100103.92;1779102;80;20965;-44
2022/10/06 03:29:00;;;;;;;8.85;3.17;;;;;;;10.95;71.93;100109.11;1779135;80;21066;-44
2022/10/06 03:31:27;;;;;;;8.05;3.40;;;;;;;10.93;71.81;100101.90;1767282;80;21795;-44
2022/10/06 03:33:55;;;;;;;5.97;3.30;;;;;;;10.89;71.78;100101.80;1742636;82;21059;-44
2022/10/06 03:36:27;;;;;;;6.90;3.25;;;;;;;10.88;71.79;100103.72;1747488;82;21017;-44
2022/10/06 03:38:54;;;;;;;7.25;2.87;;;;;;;10.88;71.65;100111.86;1748119;82;21547;-44
2022/10/06 03:41:27;;;;;;;7.50;3.45;;;;;;;10.88;71.45;100105.64;1748591;82;21496;-44
2022/10/06 03:43:56;;;;;;;7.35;3.30;;;;;;;10.87;71.37;100104.84;1748640;82;21789;-44
2022/10/06 03:46:28;;;;;;;5.15;2.80;;;;;;;10.84;71.50;100102.80;1748549;82;21020;-44
2022/10/06 03:48:56;;;;;;;7.33;3.12;;;;;;;10.80;71.44;100101.12;1748590;82;21073;-44
2022/10/06 03:51:30;;;;;;;6.83;3.37;;;;;;;10.74;71.39;100103.30;1743297;82;20949;-44
2022/10/06 03:53:57;;;;;;;7.70;3.00;;;;;;;10.69;71.34;100104.89;1748543;82;21037;-44
2022/10/06 03:56:34;;;;;;;10.48;3.20;;;;;;;10.66;71.37;100108.27;1748624;82;21136;-44
2022/10/06 03:59:04;;;;;;;7.58;3.15;;;;;;;10.61;71.40;100106.35;1748828;82;21069;-44
2022/10/06 04:01:37;;;;;;;8.38;3.50;;;;;;;10.52;71.51;100110.55;1748415;82;20973;-44
2022/10/06 04:04:04;;;;;;;9.90;3.27;;;;;;;10.45;71.59;100111.70;1748851;82;21012;-44
2022/10/06 04:06:34;;;;;;;8.53;3.20;;;;;;;10.39;71.69;100117.12;1748640;82;21500;-44
2022/10/06 04:09:01;;;;;;;12.28;3.30;;;;;;;10.35;71.61;100120.28;1748429;82;21135;-44
2022/10/06 04:11:33;;;;;;;6.07;3.37;;;;;;;10.37;71.62;100118.01;1748747;82;20938;-44
2022/10/06 04:14:03;;;;;;;7.72;3.45;;;;;;;10.41;71.67;100121.61;1748503;82;21004;-44
2022/10/06 04:16:39;;;;;;;9.55;3.90;;;;;;;10.42;71.67;100121.84;1748400;82;20985;-44
2022/10/06 04:19:09;;;;;;;10.90;4.28;;;;;;;10.42;71.64;100121.28;1748582;82;21498;-43
2022/10/06 04:21:40;;;;;;;12.23;4.90;;;;;;;10.39;71.59;100121.19;1748460;82;21278;-43
2022/10/06 04:24:09;;;;;;;9.83;3.95;;;;;;;10.36;71.63;100117.80;1748475;82;20997;-44
2022/10/06 04:26:43;;;;;;;14.70;4.10;;;;;;;10.32;71.61;100118.23;1748045;82;21076;-44
2022/10/06 04:29:10;;;;;;;13.68;4.47;;;;;;;10.33;71.53;100119.82;1748625;82;21049;-44
2022/10/06 04:31:38;;;;;;;11.28;4.55;;;;;;;10.32;71.60;100120.38;1748399;82;21033;-44
2022/10/06 04:34:07;;;;;;;9.98;5.15;;;;;;;10.30;71.66;100125.93;1748566;82;22681;-44
2022/10/06 04:36:39;;;;;;;9.13;4.40;;;;;;;10.25;71.86;100128.86;1737219;81;21022;-44
2022/10/06 04:39:09;;;;;;;10.32;4.95;;;;;;;10.24;71.94;100132.70;1734646;82;20997;-44
2022/10/06 04:41:39;;;;;;;11.70;4.47;;;;;;;10.26;71.91;100133.16;1734701;82;21081;-44
2022/10/06 04:44:06;;;;;;;12.70;4.78;;;;;;;10.32;71.85;100135.28;1713955;82;21018;-44
2022/10/06 04:46:33;;;;;;;11.45;4.30;;;;;;;10.37;71.75;100132.91;1734435;82;21245;-44
2022/10/06 04:49:00;;;;;;;13.70;4.30;;;;;;;10.37;71.78;100135.06;1734370;82;20981;-44
2022/10/06 04:51:29;;;;;;;11.33;4.50;;;;;;;10.37;71.90;100132.91;1734474;82;21083;-43
2022/10/06 04:53:58;;;;;;;14.25;4.45;;;;;;;10.35;71.95;100135.19;1734406;82;21005;-44
2022/10/06 04:56:29;;;;;;;15.78;4.20;;;;;;;10.32;71.96;100136.64;1734635;82;21088;-44
2022/10/06 04:58:58;;;;;;;10.28;4.20;;;;;;;10.32;72.04;100143.42;1734791;82;21140;-43
2022/10/06 05:01:31;;;;;;;9.30;4.15;;;;;;;10.38;72.16;100143.98;1734696;82;21481;-43
2022/10/06 05:04:01;;;;;;;9.18;4.10;;;;;;;10.45;72.18;100141.52;1734893;82;21030;-43
2022/10/06 05:06:35;;;;;;;11.93;4.30;;;;;;;10.47;72.25;100144.66;1735028;82;20918;-43
2022/10/06 05:09:13;;;;;;;9.18;4.58;;;;;;;10.48;72.40;100140.83;1734495;82;21033;-43
2022/10/06 05:11:42;;;;;;;11.90;4.92;;;;;;;10.50;72.41;100144.56;1734861;82;21016;-43
2022/10/06 05:14:10;;;;;;;11.03;3.83;;;;;;;10.55;72.31;100145.13;1734383;82;21506;-43
2022/10/06 05:16:39;;;;;;;15.45;4.75;;;;;;;10.61;72.29;100146.46;1734563;81;21070;-43
2022/10/06 05:19:08;;;;;;;10.40;3.47;;;;;;;10.69;72.25;100141.50;1734740;82;21511;-43
2022/10/06 05:21:37;;;;;;;9.63;3.65;;;;;;;10.70;72.25;100147.69;1734739;82;21473;-43
2022/10/06 05:24:06;;;;;;;10.20;4.67;;;;;;;10.69;72.31;100149.64;1734490;82;21242;-43
2022/10/06 05:26:35;;;;;;;9.65;3.67;;;;;;;10.70;72.40;100152.55;1734535;82;21266;-43
2022/10/06 05:29:03;;;;;;;8.13;2.70;;;;;;;10.73;72.39;100153.81;1734967;82;20977;-43
2022/10/06 05:31:32;;;;;;;13.28;4.10;;;;;;;10.79;72.41;100147.03;1734747;82;20982;-43
2022/10/06 05:34:01;;;;;;;12.28;4.17;;;;;;;10.85;72.35;100151.86;1734575;82;21065;-43
2022/10/06 05:36:30;;;;;;;11.12;4.45;;;;;;;10.87;72.12;100153.68;1734558;81;21126;-43
2022/10/06 05:38:58;;;;;;;8.75;3.85;;;;;;;10.90;71.99;100152.19;1734717;82;21017;-44
2022/10/06 05:41:29;;;;;;;9.50;3.12;;;;;;;10.92;71.87;100155.36;1734684;82;21029;-44
2022/10/06 05:43:57;;;;;;;11.85;3.95;;;;;;;10.96;71.69;100156.81;1734859;81;21536;-43
2022/10/06 05:46:27;;;;;;;9.25;3.33;;;;;;;11.05;71.54;100154.76;1734557;82;21077;-43
2022/10/06 05:49:03;;;;;;;9.98;3.95;;;;;;;11.12;71.40;100159.05;1735025;82;21187;-44
2022/10/06 05:51:33;;;;;;;11.55;4.25;;;;;;;11.16;70.94;100157.23;1734441;82;21494;-44
2022/10/06 05:54:01;;;;;;;;;;;;;;;11.18;70.87;100157.09;1737226;82;21081;-44
2022/10/06 05:56:34;;;;;;;8.25;3.77;;;;;;;11.23;71.00;100162.87;1734669;81;20241;-44
2022/10/06 05:59:01;;;;;;;7.53;3.50;;;;;;;11.19;70.69;100164.11;1735117;82;21022;-43
2022/10/06 06:01:38;;;;;;;7.92;3.70;;;;;;;11.31;70.57;100167.36;1734727;82;21151;-44
2022/10/06 06:04:10;;;;;;;7.70;3.22;;;;;;;11.44;70.25;100172.17;1734579;82;21043;-43
2022/10/06 06:06:43;;;;;;;9.98;3.47;;;;;;;11.53;69.97;100174.97;1734449;82;20946;-44
2022/10/06 06:09:18;;;;;;;8.25;3.25;;;;;;;11.57;69.52;100171.02;1734651;82;21016;-43
2022/10/06 06:11:49;;;;;;;8.25;3.58;;;;;;;11.60;69.40;100173.82;1734656;81;20974;-43
2022/10/06 06:15:59;;;;;;;5.87;3.12;;;;;;;11.68;69.21;100173.44;1734849;81;21181;-44
2022/10/06 06:16:51;;;;;;;6.45;3.33;;;;;;;11.82;68.91;100175.77;1726690;82;21065;-44
2022/10/06 06:19:18;;;;;;;5.45;2.98;;;;;;;11.93;68.24;100174.92;1734386;82;20990;-44
2022/10/06 06:21:46;;;;;;;5.37;2.87;;;;;;;12.03;68.45;100175.77;1734782;82;21476;-44
2022/10/06 06:24:15;;;;;;;7.55;3.30;;;;;;;12.11;67.58;100179.45;1734542;82;21585;-44
2022/10/06 06:26:41;;;;;;;13.85;3.58;;;;;;;12.19;67.34;100179.30;1734625;82;21138;-44
2022/10/06 06:29:09;;;;;;;6.15;2.98;;;;;;;12.27;67.44;100176.19;1734418;82;21021;-44
2022/10/06 06:31:42;;;;;;;10.45;3.60;;;;;;;12.37;67.03;100181.10;1734371;82;21012;-44
2022/10/06 06:34:08;;;;;;;4.60;2.80;;;;;;;12.50;65.96;100177.14;1734486;82;21021;-44
2022/10/06 06:36:39;;;;;;;7.08;3.15;;;;;;;12.63;65.42;100178.61;1734671;82;21069;-44
2022/10/06 06:39:12;;;;;;;5.40;2.60;;;;;;;12.71;64.57;100181.52;1738104;82;21227;-44
2022/10/06 06:41:48;;;;;;;6.62;3.10;;;;;;;12.79;65.13;100181.88;1734426;82;20973;-44
2022/10/06 06:44:20;;;;;;;13.10;3.25;;;;;;;12.84;64.24;100178.33;1732331;82;20994;-44
2022/10/06 06:46:49;;;;;;;5.40;3.00;;;;;;;12.90;64.05;100181.56;1734371;82;21041;-43
2022/10/06 06:49:20;;;;;;;6.22;2.70;;;;;;;12.93;63.67;100177.55;1734812;82;20999;-43
2022/10/06 06:51:49;;;;;;;8.58;3.05;;;;;;;12.98;63.47;100174.55;1734446;82;21170;-43
2022/10/06 06:54:17;;;;;;;5.35;3.02;;;;;;;13.09;63.52;100173.44;1734292;82;21073;-44
2022/10/06 06:56:47;;;;;;;4.15;2.72;;;;;;;13.13;62.96;100172.96;1734584;81;21050;-44
2022/10/06 06:59:16;;;;;;;;;;;;;;;13.16;63.10;100174.20;1736991;81;21097;-44
2022/10/06 07:01:47;;;;;;;5.95;3.00;;;;;;;13.18;62.48;100165.87;1734587;81;20131;-44
2022/10/06 07:04:17;;;;;;;5.70;3.47;;;;;;;13.13;63.02;100178.41;1734349;81;21909;-44
2022/10/06 07:06:55;;;;;;;5.62;3.10;;;;;;;13.16;62.80;100172.27;1734412;82;21061;-44
2022/10/06 07:09:13;;;;;;;10.10;3.40;;;;;;;13.20;62.31;100174.48;1733444;82;21085;-44
2022/10/06 07:11:41;;;;;;;7.83;3.30;;;;;;;13.25;62.18;100172.05;1734433;82;21683;-44
2022/10/06 07:14:11;;;;;;;5.83;2.83;;;;;;;13.32;62.14;100172.19;1734348;81;21006;-44
2022/10/06 07:25:22;;;;;;;7.35;3.37;;;;;;;13.52;62.03;100167.53;1734652;82;21025;-44
2022/10/06 07:27:50;;;;;;;7.12;3.25;;;;;;;13.58;61.84;100164.74;1734778;82;21010;-44
2022/10/06 07:30:24;;;;;;;5.15;2.95;;;;;;;13.64;61.77;100172.84;1734736;82;21320;-44
2022/10/06 07:32:54;;;;;;;7.22;3.35;;;;;;;13.69;61.67;100167.11;1735013;82;21513;-44
2022/10/06 07:35:23;;;;;;;10.48;3.37;;;;;;;13.80;61.51;100175.68;1734528;81;21556;-44
2022/10/06 07:37:52;;;;;;;4.60;2.72;;;;;;;13.91;60.83;100173.95;1734512;81;21261;-44
2022/10/06 07:40:19;;;;;;;6.90;3.10;;;;;;;14.01;61.04;100161.66;1734247;82;21017;-44
2022/10/06 07:42:47;;;;;;;9.85;3.35;;;;;;;14.12;61.21;100169.46;1734345;82;21236;-44
2022/10/06 07:45:40;;;;;;;5.07;3.10;;;;;;;14.24;60.65;100161.08;1734672;82;21083;-44
2022/10/06 07:48:16;;;;;;;4.83;3.00;;;;;;;14.33;60.04;100162.98;1734484;82;20978;-44
2022/10/06 07:50:48;;;;;;;6.90;3.08;;;;;;;14.41;59.78;100165.87;1734791;82;21073;-44
2022/10/06 07:53:17;;;;;;;6.58;3.02;;;;;;;14.48;59.82;100158.58;1734500;82;21073;-44
2022/10/06 07:55:48;;;;;;;10.65;3.60;;;;;;;14.55;59.29;100162.00;1734215;82;21247;-44
2022/10/06 07:58:24;;;;;;;6.12;3.33;;;;;;;14.62;59.11;100153.34;1734509;82;20989;-44
2022/10/06 08:00:53;;;;;;;8.48;3.70;;;;;;;14.68;58.61;100157.91;1734496;82;20953;-44
2022/10/06 08:03:21;;;;;;;5.95;3.45;;;;;;;14.73;58.96;100149.41;1734621;82;20958;-44
2022/10/06 08:05:51;;;;;;;7.72;3.47;;;;;;;14.79;58.87;100154.20;1734734;82;21002;-44
2022/10/06 08:08:19;;;;;;;5.05;2.80;;;;;;;14.91;58.65;100142.86;1734598;82;20926;-44
2022/10/06 08:10:55;;;;;;;7.47;3.00;;;;;;;15.01;58.29;100142.98;1734531;82;20969;-44
2022/10/06 08:13:22;;;;;;;8.35;3.70;;;;;;;15.10;57.96;100148.95;1734573;82;21077;-44
2022/10/06 08:15:50;;;;;;;10.38;3.92;;;;;;;15.20;58.07;100146.94;1734415;82;21009;-45
2022/10/06 08:18:19;;;;;;;9.05;3.25;;;;;;;15.30;57.04;100142.77;1734358;82;21038;-44
2022/10/06 08:20:47;;;;;;;7.50;3.40;;;;;;;15.38;57.62;100138.98;1734403;82;21153;-45
2022/10/06 08:23:14;;;;;;;9.88;3.37;;;;;;;15.47;57.07;100138.68;1734391;82;20946;-45
2022/10/06 08:25:44;;;;;;;8.65;3.33;;;;;;;15.54;56.94;100140.93;1734269;82;21448;-45
2022/10/06 08:28:11;;;;;;;8.23;3.45;;;;;;;15.62;56.57;100141.81;1737884;82;21041;-44
2022/10/06 08:30:38;;;;;;;7.42;3.40;;;;;;;15.68;56.14;100136.22;1734486;82;21010;-45
2022/10/06 08:33:05;;;;;;;7.50;3.62;;;;;;;15.75;56.21;100130.81;1734455;82;21144;-45
2022/10/06 08:35:32;;;;;;;9.08;3.60;;;;;;;15.83;55.87;100125.61;1734476;82;20927;-45
2022/10/06 08:37:59;;;;;;;4.90;3.25;;;;;;;15.89;55.65;100124.70;1745733;81;21013;-44
2022/10/06 08:40:26;;;;;;;8.28;3.35;;;;;;;15.96;55.67;100129.66;1748352;82;21570;-45
2022/10/06 08:42:55;;;;;;;5.85;3.00;;;;;;;16.01;54.56;100125.22;1748586;82;21064;-45
2022/10/06 08:45:33;;;;;;;7.72;2.92;;;;;;;16.07;55.36;100123.69;1748889;82;21055;-45
2022/10/06 08:48:14;;;;;;;5.53;2.90;;;;;;;16.16;55.46;100129.45;1746123;82;20965;-44
2022/10/06 08:52:16;;;;;;;7.35;3.20;;;;;;;16.40;55.38;100122.02;1778771;79;22715;-43
2022/10/06 08:55:18;;;;;;;5.53;2.90;;;;;;;16.48;54.11;100122.27;1738622;82;21540;-44
2022/10/06 08:58:27;;;;;;;7.62;2.92;;;;;;;16.58;53.52;100127.06;1738515;82;21253;-44
2022/10/06 09:00:55;;;;;;;6.60;2.98;;;;;;;16.65;53.12;100129.86;1738109;82;21521;-44
2022/10/06 09:03:23;;;;;;;7.67;3.20;;;;;;;16.76;53.71;100121.11;1738300;82;20974;-44
2022/10/06 09:06:06;;;;;;;4.45;3.02;;;;;;;16.90;52.91;100128.61;1738325;82;20986;-44
2022/10/06 09:08:49;;;;;;;7.10;3.40;;;;;;;17.01;52.69;100124.57;1737888;82;21604;-44
2022/10/06 09:11:40;;;;;;;5.83;3.60;;;;;;;17.08;53.05;100127.36;1738563;82;21132;-44
2022/10/06 09:14:15;;;;;;;8.43;3.12;;;;;;;17.18;52.19;100125.25;1738332;82;21021;-44
2022/10/06 09:16:46;;;;;;;3.92;2.98;;;;;;;17.26;53.02;100128.22;1738263;82;20892;-44
2022/10/06 09:19:42;;;;;;;4.03;2.80;;;;;;;17.36;52.53;100131.00;1738692;82;21001;-44
2022/10/06 09:22:19;;;;;;;5.05;3.20;;;;;;;17.48;52.45;100119.47;1738219;82;21584;-44
2022/10/06 09:24:49;;;;;;;11.43;2.92;;;;;;;17.58;51.63;100120.88;1739077;82;21146;-44
2022/10/06 09:27:22;;;;;;;6.62;3.27;;;;;;;17.68;52.29;100125.63;1738365;82;21494;-45
2022/10/06 09:29:50;;;;;;;5.22;3.08;;;;;;;17.82;51.10;100126.23;1738578;82;20969;-44
2022/10/06 09:32:19;;;;;;;5.72;3.37;;;;;;;17.93;50.03;100122.94;1738713;82;21001;-44
2022/10/06 09:34:51;;;;;;;9.60;3.02;;;;;;;18.01;49.95;100132.73;1738460;82;21003;-44
2022/10/06 09:37:18;;;;;;;6.25;2.87;;;;;;;18.07;50.00;100133.13;1738467;82;21092;-44
2022/10/06 09:39:49;;;;;;;6.62;2.95;;;;;;;18.15;50.01;100127.25;1738382;82;20966;-45
2022/10/06 09:42:25;;;;;;;7.80;3.20;;;;;;;18.26;49.04;100124.52;1738493;82;21029;-44
2022/10/06 09:45:13;;;;;;;4.10;2.60;;;;;;;18.33;49.04;100131.39;1754626;81;20976;-44
2022/10/06 09:47:45;;;;;;;7.12;3.00;;;;;;;18.38;49.12;100132.37;1721236;83;20984;-44
2022/10/06 09:50:23;;;;;;;7.85;3.10;;;;;;;18.47;48.50;100128.63;1721013;83;21084;-45
2022/10/06 09:53:03;;;;;;;5.85;3.10;;;;;;;18.57;48.46;100137.48;1751549;81;20961;-45
2022/10/06 09:55:41;;;;;;;5.03;3.27;;;;;;;18.65;47.27;100129.42;1715455;83;21005;-44
2022/10/06 09:58:33;;;;;;;4.85;3.12;;;;;;;18.71;47.57;100126.27;1715569;83;20937;-45
2022/10/06 10:01:10;;;;;;;5.92;3.10;;;;;;;18.80;47.99;100129.39;1751637;81;21500;-44
2022/10/06 10:03:50;;;;;;;5.90;3.20;;;;;;;18.88;48.07;100122.72;1715194;83;21144;-44
2022/10/06 10:06:26;;;;;;;8.30;3.40;;;;;;;19.00;47.47;100125.03;1715064;83;20998;-44
2022/10/06 10:09:20;;;;;;;5.35;2.92;;;;;;;19.10;48.05;100123.62;1714864;83;20945;-45
2022/10/06 10:12:24;;;;;;;5.42;3.35;;;;;;;19.18;46.95;100127.70;1714932;83;21090;-44
2022/10/06 10:15:12;;;;;;;7.03;2.80;;;;;;;19.24;46.76;100126.91;1714943;83;20937;-44
2022/10/06 10:17:55;;;;;;;7.40;3.62;;;;;;;19.31;46.88;100121.98;1714871;83;20996;-45
2022/10/06 10:20:35;;;;;;;7.20;3.20;;;;;;;19.42;46.52;100122.69;1714815;83;20929;-45
2022/10/06 10:23:10;;;;;;;3.72;2.92;;;;;;;19.52;45.81;100115.80;1750973;81;20973;-45
2022/10/06 10:26:00;;;;;;;5.40;3.55;;;;;;;19.64;46.10;100113.19;1746149;82;21032;-45
2022/10/06 10:29:04;;;;;;;7.80;3.40;;;;;;;19.79;46.26;100115.26;1714711;83;21530;-45
2022/10/06 10:31:48;;;;;;;5.35;3.40;;;;;;;19.91;45.49;100120.27;1750859;82;22119;-45
2022/10/06 10:34:32;;;;;;;6.12;3.67;;;;;;;20.03;45.23;100112.92;1751032;82;21333;-45
2022/10/06 10:37:11;;;;;;;9.93;3.90;;;;;;;20.12;44.69;100111.87;1751163;81;21044;-45
2022/10/06 10:40:00;;;;;;;7.20;3.40;;;;;;;20.15;44.32;100109.67;1751549;82;21021;-45
2022/10/06 10:42:49;;;;;;;;;;;;;;;20.18;45.12;100108.09;1753866;82;21041;-45
2022/10/06 10:45:33;;;;;;;6.00;3.15;;;;;;;20.30;44.34;100115.28;1751030;82;21132;-45
2022/10/06 10:48:02;;;;;;;5.78;3.50;;;;;;;20.26;44.29;100111.75;1714940;83;21071;-44
2022/10/06 10:50:45;;;;;;;;;;;;;;;20.31;44.48;100103.09;1754925;81;21710;-44
2022/10/06 10:53:29;;;;;;;6.53;3.20;;;;;;;20.38;44.57;100100.88;1756285;81;20192;-44
2022/10/06 10:55:56;;;;;;;6.42;3.30;;;;;;;20.36;43.69;100101.27;1720406;83;21014;-44
2022/10/06 10:58:36;;;;;;;6.87;3.33;;;;;;;20.45;44.36;100095.28;1720430;83;21145;-44
2022/10/06 11:01:22;;;;;;;6.62;3.30;;;;;;;20.57;43.77;100099.52;1719840;83;20979;-44
2022/10/06 11:03:55;;;;;;;6.35;3.33;;;;;;;20.69;43.16;100101.14;1720311;83;21072;-45
2022/10/06 11:06:54;;;;;;;3.40;2.65;;;;;;;20.72;43.16;100096.80;1720059;83;21095;-45
2022/10/06 11:09:54;;;;;;;6.80;3.10;;;;;;;20.80;44.39;100102.41;1720208;83;21023;-45
2022/10/06 11:13:04;;;;;;;5.05;3.20;;;;;;;20.91;42.92;100100.92;1720661;83;21097;-45
2022/10/06 11:16:02;;;;;;;6.47;3.00;;;;;;;20.95;42.88;100090.03;1715663;83;21072;-45
2022/10/06 11:19:18;;;;;;;5.12;3.33;;;;;;;20.96;43.16;100090.20;1720690;83;22279;-45
2022/10/06 11:21:59;;;;;;;5.50;3.33;;;;;;;21.01;42.63;100093.88;1720594;83;21669;-45
2022/10/06 11:24:53;;;;;;;5.50;3.30;;;;;;;21.13;42.62;100084.30;1720519;83;21040;-45
2022/10/06 11:27:37;;;;;;;5.30;3.05;;;;;;;21.28;42.36;100091.83;1720169;83;21507;-45
2022/10/06 11:30:18;;;;;;;9.95;3.50;;;;;;;21.40;42.36;100077.46;1719943;83;20937;-45
2022/10/06 11:33:22;;;;;;;5.30;3.33;;;;;;;21.55;41.54;100079.61;1720274;83;21036;-45
2022/10/06 11:35:49;;;;;;;6.90;3.52;;;;;;;21.71;41.11;100066.58;1720362;83;21522;-45
2022/10/06 11:38:30;;;;;;;5.22;3.10;;;;;;;21.88;40.91;100071.03;1720253;83;21044;-45
2022/10/06 11:41:08;;;;;;;5.35;3.33;;;;;;;22.07;40.48;100070.35;1720532;83;21900;-45
2022/10/06 11:43:53;;;;;;;6.00;3.60;;;;;;;22.29;40.04;100082.43;1720345;83;21015;-45
2022/10/06 11:46:43;;;;;;;5.10;3.10;;;;;;;22.44;39.17;100063.80;1720135;83;20972;-45
2022/10/06 11:49:46;;;;;;;6.37;3.27;;;;;;;22.55;38.96;100069.14;1720234;83;20981;-45
2022/10/06 11:52:19;;;;;;;4.55;2.85;;;;;;;22.70;38.55;100065.51;1711226;83;21105;-45
2022/10/06 11:54:55;;;;;;;4.95;3.00;;;;;;;22.83;37.94;100072.77;1689200;85;21255;-45
2022/10/06 11:57:28;;;;;;;4.03;2.67;;;;;;;22.90;37.72;100071.23;1707717;84;20949;-45
2022/10/06 12:00:06;;;;;;;4.50;2.95;;;;;;;22.98;38.15;100069.12;1679106;85;21044;-45
2022/10/06 12:02:40;;;;;;;6.92;3.08;;;;;;;23.04;37.45;100068.02;1742775;82;21012;-45